Data for 05/27/2016

Time Sea-Level Adjusted Pressure Absolute Pressure Temperature Relative Humidity Dew Point   
(mb) (inHg) (mb) (inHg) (C) (F) (%) (C) (F)
00:05 1016 30 845 24.95 9.3 48.7 66 3.3 37.9
00:10 1016 30 845 24.95 9.1 48.4 67 3.3 38
00:15 1016 30 845 24.95 8.9 48 67 3.2 37.8
00:20 1016 30 845 24.95 8.5 47.3 70 3.3 38
00:25 1016 30 845 24.95 8.2 46.8 71 3.3 37.9
00:30 1016 30 845 24.95 8.1 46.6 71 3.3 37.9
00:35 1016 30 845 24.95 8 46.4 71 3.2 37.7
00:40 1016 30 845 24.95 7.9 46.3 72 3.2 37.7
00:45 1016 30 845 24.95 7.7 45.9 73 3.1 37.6
00:50 1016 30 845 24.95 7.6 45.8 72 2.9 37.2
00:55 1016 30 845 24.95 7.6 45.7 72 2.9 37.2
01:00 1016 30 845 24.95 7.5 45.5 73 2.9 37.3
01:05 1016 30 845 24.95 7.5 45.6 72 2.8 37
01:10 1016 30 845 24.95 7.6 45.6 73 3 37.3
01:15 1016 30 845 24.95 7.4 45.4 72 2.7 36.9
01:20 1016 30 845 24.95 7.4 45.3 73 2.9 37.2
01:25 1016 30 845 24.95 7.1 44.8 74 2.8 37
01:30 1016 30 845 24.95 7.2 45 72 2.6 36.6
01:35 1016 30 845 24.95 7.3 45.1 73 2.8 37.1
01:40 1016 30 845 24.95 7.3 45.1 74 2.9 37.3
01:45 1016 30 845 24.95 7.3 45.1 74 2.9 37.2
01:50 1016 30 845 24.95 7.1 44.8 73 2.7 36.9
01:55 1016 30 845 24.95 7.1 44.7 74 2.8 37
02:00 1016 30 845 24.95 6.9 44.5 75 2.9 37.2
02:05 1016 30 845 24.95 6.7 44.1 76 2.8 37
02:10 1016 30 845 24.95 6.7 44.1 77 2.9 37.2
02:15 1016 30 845 24.95 6.8 44.3 76 2.8 37.1
02:20 1016 30 845 24.95 6.8 44.2 75 2.7 36.8
02:25 1015 29.97 845 24.95 6.8 44.2 75 2.7 36.9
02:30 1015 29.97 845 24.95 6.8 44.2 75 2.7 36.8
02:35 1015 29.97 845 24.95 6.6 43.9 76 2.7 36.9
02:40 1015 29.97 845 24.95 6.5 43.7 76 2.6 36.7
02:45 1015 29.97 845 24.95 6.3 43.3 78 2.8 37
02:50 1016 30 845 24.95 6.2 43.2 78 2.7 36.8
02:55 1015 29.97 845 24.95 6.2 43.1 78 2.7 36.8
03:00 1016 30 845 24.95 6.2 43.2 78 2.6 36.7
03:05 1016 30 845 24.95 6.4 43.5 76 2.5 36.5
03:10 1016 30 845 24.95 6.4 43.6 76 2.5 36.5
03:15 1016 30 845 24.95 6.4 43.6 76 2.5 36.5
03:20 1016 30 845 24.95 6.1 43 77 2.5 36.4
03:25 1016 30 845 24.95 6.1 43.1 77 2.4 36.4
03:30 1016 30 845 24.95 6.1 43 78 2.6 36.7
03:35 1016 30 845 24.95 6.2 43.1 77 2.5 36.5
03:40 1016 30 845 24.95 6 42.8 79 2.6 36.6
03:45 1016 30 845 24.95 6 42.8 77 2.3 36.2
03:50 1016 30 845 24.95 5.8 42.5 78 2.3 36.2
03:55 1016 30 845 24.95 5.2 41.4 81 2.2 35.9
04:00 1016 30 845 24.95 5.6 42 78 2.1 35.8
04:05 1016 30 845 24.95 6.1 43 76 2.1 35.8
04:10 1016 30 845 24.95 6.4 43.5 75 2.3 36.1
04:15 1016 30 845 24.95 6.4 43.6 75 2.3 36.2
04:20 1016 30 845 24.95 6 42.9 77 2.3 36.1
04:25 1016 30 845 24.95 5.9 42.6 77 2.2 35.9
04:30 1016 30 845 24.95 5.9 42.6 76 2.1 35.7
04:35 1016 30 845 24.95 5.8 42.5 77 2.2 35.9
04:40 1016 30 845 24.95 6 42.7 76 2.1 35.8
04:45 1016 30 845 24.95 6.5 43.7 74 2.2 36
04:50 1016 30 845 24.95 6.8 44.2 74 2.4 36.3
04:55 1016 30 845 24.95 6.9 44.4 73 2.4 36.4
05:00 1016 30 845 24.95 7 44.6 71 2.1 35.8
05:05 1016 30 845 24.95 7.2 44.9 72 2.4 36.4
05:10 1016 30 845 24.95 7.2 44.9 72 2.4 36.4
05:15 1016 30 845 24.95 7.4 45.2 72 2.7 36.9
05:20 1016 30 845 24.95 7.3 45.2 74 3.1 37.5
05:25 1016 30 845 24.95 7.6 45.6 73 3.1 37.6
05:30 1016 30 845 24.95 7.6 45.7 75 3.4 38.2
05:35 1016 30 845 24.95 7.3 45.1 77 3.5 38.4
05:40 1016 30 845 24.95 7.1 44.8 81 4 39.2
05:45 1016 30 845 24.95 7.1 44.7 83 4.3 39.8
05:50 1016 30 845 24.95 7.2 45 83 4.6 40.2
05:55 1016 30 845 24.95 7.4 45.4 82 4.6 40.3
06:00 1016 30 845 24.95 7.5 45.6 82 4.6 40.4
06:05 1016 30 845 24.95 7.6 45.8 82 4.7 40.5
06:10 1016 30 845 24.95 7.7 45.8 82 4.8 40.6
06:15 1016 30 845 24.95 7.7 45.9 81 4.7 40.5
06:20 1016 30 845 24.95 7.7 45.9 81 4.7 40.5
06:25 1016 30 845 24.95 7.8 46.1 83 5 41.1
06:30 1016 30 845 24.95 7.8 46.1 83 5.2 41.3
06:35 1016 30 846 24.98 7.9 46.3 84 5.3 41.6
06:40 1016 30 846 24.98 7.9 46.2 84 5.3 41.6
06:45 1016 30 846 24.98 7.9 46.2 84 5.4 41.6
06:50 1016 30 846 24.98 7.9 46.3 84 5.4 41.7
06:55 1016 30 846 24.98 8 46.3 84 5.5 41.9
07:00 1016 30 846 24.98 8 46.3 85 5.6 42
07:05 1016 30 846 24.98 8 46.3 84 5.4 41.8
07:10 1016 30 846 24.98 7.9 46.2 84 5.3 41.6
07:15 1017 30.03 846 24.98 7.9 46.2 84 5.4 41.7
07:20 1017 30.03 846 24.98 7.9 46.2 85 5.5 41.8
07:25 1017 30.03 846 24.98 8 46.3 85 5.6 42.1
07:30 1017 30.03 846 24.98 7.9 46.2 86 5.6 42.2
07:35 1017 30.03 846 24.98 7.8 46.1 86 5.7 42.2
07:40 1017 30.03 846 24.98 7.9 46.1 86 5.7 42.3
07:45 1017 30.03 846 24.98 7.9 46.2 87 5.8 42.4
07:50 1017 30.03 846 24.98 7.8 46.1 86 5.6 42.1
07:55 1017 30.03 846 24.98 7.7 45.9 87 5.6 42.1
08:00 1017 30.03 846 24.98 7.7 45.9 86 5.6 42
08:05 1016 30 846 24.98 7.8 46 86 5.5 42
08:10 1016 30 845 24.95 7.9 46.3 88 6 42.9
08:15 1016 30 845 24.95 8.4 47.1 84 5.9 42.6
08:20 1016 30 845 24.95 8.6 47.5 83 5.9 42.5
08:25 1016 30 845 24.95 8.9 48 83 6.1 43
08:30 1016 30 845 24.95 9.1 48.5 78 5.6 42.1
08:35 1016 30 845 24.95 9.1 48.4 79 5.7 42.2
08:40 1016 30 845 24.95 9.6 49.3 77 5.9 42.5
08:45 1016 30 845 24.95 10.1 50.2 74 5.6 42.2
08:50 1016 30 845 24.95 10 50 75 5.7 42.3
08:55 1016 30 845 24.95 10.3 50.5 71 5.2 41.4
09:00 1016 30 845 24.95 10.4 50.8 72 5.6 42
09:05 1016 30 845 24.95 10.1 50.1 75 5.8 42.5
09:10 1016 30 845 24.95 10.5 50.9 71 5.5 41.8
09:15 1016 30 845 24.95 10.8 51.4 67 4.9 40.8
09:20 1016 30 845 24.95 10.8 51.5 68 5.1 41.2
09:25 1016 30 845 24.95 11.2 52.1 65 4.9 40.8
09:30 1016 30 845 24.95 11.4 52.6 62 4.5 40.1
09:35 1016 30 845 24.95 11.8 53.2 63 5 40.9
09:40 1016 30 845 24.95 12.1 53.8 63 5.4 41.7
09:45 1016 30 845 24.95 12 53.6 63 5.1 41.2
09:50 1016 30 845 24.95 11.8 53.3 62 4.9 40.9
09:55 1016 30 845 24.95 12.1 53.7 61 4.8 40.6
10:00 1016 30 845 24.95 12 53.5 62 4.9 40.8
10:05 1016 30 845 24.95 12.2 54 63 5.5 41.9
10:10 1016 30 845 24.95 12.5 54.5 59 4.8 40.6
10:15 1016 30 845 24.95 12.8 55 60 5.4 41.7
10:20 1016 30 845 24.95 12.4 54.3 63 5.5 41.9
10:25 1016 30 845 24.95 11.9 53.4 62 4.9 40.7
10:30 1016 30 845 24.95 11.9 53.3 63 5 41
10:35 1016 30 845 24.95 11.9 53.5 61 4.7 40.5
10:40 1016 30 845 24.95 12.3 54.1 62 5.3 41.5
10:45 1016 30 845 24.95 12.8 55 65 6.4 43.5
10:50 1016 30 845 24.95 13 55.4 66 6.8 44.3
10:55 1016 30 845 24.95 12.7 54.9 76 8.6 47.4
11:00 1016 30 845 24.95 11.5 52.6 74 7 44.6
11:05 1015 29.97 845 24.95 11.8 53.2 73 7.2 44.9
11:10 1015 29.97 845 24.95 11.6 52.9 75 7.4 45.3
11:15 1015 29.97 845 24.95 11.6 53 69 6.2 43.1
11:20 1015 29.97 845 24.95 12.2 53.9 66 6 42.7
11:25 1015 29.97 844 24.92 12.5 54.6 66 6.3 43.4
11:30 1015 29.97 844 24.92 12.9 55.2 58 4.8 40.7
11:35 1015 29.97 844 24.92 12.4 54.3 60 5 40.9
11:40 1015 29.97 844 24.92 12.6 54.6 58 4.6 40.3
11:45 1015 29.97 844 24.92 13.5 56.2 56 5 41
11:50 1015 29.97 844 24.92 14.1 57.3 54 5.1 41.2
11:55 1015 29.97 844 24.92 14.5 58 52 4.7 40.4
12:00 1015 29.97 844 24.92 14.5 58.1 51 4.7 40.5
12:05 1015 29.97 844 24.92 14.2 57.6 53 5 40.9
12:10 1015 29.97 844 24.92 13.5 56.4 54 4.4 40
12:15 1015 29.97 844 24.92 13.2 55.7 57 4.8 40.7
12:20 1015 29.97 844 24.92 12.9 55.2 56 4.4 39.9
12:25 1015 29.97 844 24.92 13.2 55.7 53 3.9 39
12:30 1015 29.97 844 24.92 14 57.2 53 4.5 40.1
12:35 1015 29.97 844 24.92 15.1 59.2 48 4.3 39.8
12:40 1015 29.97 844 24.92 15.6 60 49 5.1 41.2
12:45 1015 29.97 844 24.92 14.6 58.2 49 4.2 39.5
12:50 1015 29.97 844 24.92 14.5 58 50 4.3 39.7
12:55 1015 29.97 844 24.92 14.8 58.6 49 4.2 39.5
13:00 1015 29.97 844 24.92 14.8 58.7 50 4.7 40.4
13:05 1015 29.97 844 24.92 13.7 56.6 57 5.5 41.9
13:10 1015 29.97 844 24.92 12.8 55 58 4.8 40.6
13:15 1015 29.97 844 24.92 12.1 53.8 60 4.7 40.5
13:20 1015 29.97 844 24.92 11.8 53.2 59 4.1 39.5
13:25 1015 29.97 844 24.92 11.6 52.9 55 3 37.5
13:30 1015 29.97 844 24.92 11.7 53.1 60 4.4 39.9
13:35 1015 29.97 844 24.92 11.6 53 65 5.4 41.7
13:40 1014 29.94 844 24.92 11.6 52.9 67 5.7 42.3
13:45 1014 29.94 843 24.89 11.4 52.5 63 4.6 40.2
13:50 1014 29.94 843 24.89 11.6 52.8 59 3.9 39.1
13:55 1014 29.94 843 24.89 12.1 53.7 58 4 39.3
14:00 1014 29.94 843 24.89 12.9 55.2 52 3.2 37.8
14:05 1014 29.94 843 24.89 13.4 56.2 48 2.6 36.6
14:10 1014 29.94 843 24.89 13.5 56.3 48 2.7 36.9
14:15 1014 29.94 843 24.89 13.7 56.6 47 2.8 37
14:20 1014 29.94 843 24.89 13.9 57 44 2.1 35.7
14:25 1014 29.94 843 24.89 14.2 57.6 44 2.2 36
14:30 1014 29.94 843 24.89 14.9 58.9 43 2.6 36.7
14:35 1014 29.94 843 24.89 15.2 59.4 41 2 35.6
14:40 1014 29.94 843 24.89 15.5 59.8 41 2.4 36.3
14:45 1014 29.94 843 24.89 15 59 42 2.3 36.1
14:50 1014 29.94 843 24.89 15.9 60.7 37 1.4 34.5
14:55 1014 29.94 843 24.89 16.6 61.9 38 2.2 35.9
15:00 1014 29.94 843 24.89 16.4 61.5 38 2.3 36.2
15:05 1014 29.94 843 24.89 15.6 60 54 6.3 43.4
15:10 1014 29.94 843 24.89 14.6 58.3 54 5.4 41.8
15:15 1014 29.94 843 24.89 14.2 57.6 55 5.4 41.6
15:20 1014 29.94 843 24.89 14 57.2 55 5.2 41.4
15:25 1014 29.94 843 24.89 13.9 57.1 56 5.3 41.6
15:30 1014 29.94 843 24.89 13.8 56.8 56 5.3 41.6
15:35 1014 29.94 843 24.89 13.5 56.3 57 5.1 41.2
15:40 1014 29.94 844 24.92 13.3 56 57 5.1 41.2
15:45 1014 29.94 844 24.92 12.9 55.2 59 5 41.1
15:50 1015 29.97 844 24.92 12.7 54.8 61 5.3 41.5
15:55 1015 29.97 844 24.92 12.3 54.1 66 6.1 42.9
16:00 1015 29.97 844 24.92 11.7 53.1 74 7.2 45
16:05 1015 29.97 844 24.92 10.8 51.4 76 6.7 44.1
16:10 1015 29.97 844 24.92 10.2 50.3 75 6 42.8
16:15 1015 29.97 844 24.92 10.2 50.3 74 5.9 42.5
16:20 1015 29.97 844 24.92 10 50 78 6.3 43.3
16:25 1015 29.97 844 24.92 9.7 49.4 78 6.1 43.1
16:30 1015 29.97 845 24.95 9.4 48.9 79 5.9 42.7
16:35 1015 29.97 845 24.95 9.3 48.7 76 5.3 41.5
16:40 1015 29.97 845 24.95 9.3 48.8 75 5.1 41.2
16:45 1015 29.97 845 24.95 9.3 48.8 76 5.3 41.6
16:50 1015 29.97 845 24.95 9.4 48.9 76 5.4 41.7
16:55 1015 29.97 845 24.95 9.5 49 74 5 41
17:00 1015 29.97 845 24.95 9.5 49.1 77 5.8 42.4
17:05 1015 29.97 845 24.95 9.3 48.7 80 6 42.7
17:10 1015 29.97 845 24.95 9.1 48.4 81 6.1 42.9
17:15 1015 29.97 845 24.95 9.1 48.3 78 5.4 41.8
17:20 1015 29.97 845 24.95 9 48.3 79 5.5 42
17:25 1015 29.97 845 24.95 9.1 48.4 81 6 42.8
17:30 1016 30 845 24.95 9.1 48.4 81 6 42.9
17:35 1016 30 845 24.95 9 48.2 84 6.4 43.5
17:40 1016 30 845 24.95 8.9 48.1 85 6.5 43.7
17:45 1016 30 845 24.95 8.9 48 85 6.5 43.6
17:50 1016 30 845 24.95 8.8 47.9 85 6.5 43.7
17:55 1016 30 845 24.95 8.7 47.7 86 6.6 43.9
18:00 1016 30 845 24.95 8.7 47.6 86 6.5 43.6
18:05 1016 30 845 24.95 8.5 47.3 87 6.4 43.6
18:10 1016 30 845 24.95 8.4 47.2 86 6.2 43.2
18:15 1016 30 845 24.95 8.4 47.1 87 6.4 43.4
18:20 1016 30 845 24.95 8.3 46.9 87 6.2 43.2
18:25 1016 30 845 24.95 8.3 47 86 6.2 43.1
18:30 1016 30 845 24.95 8.3 46.9 86 6.1 43
18:35 1016 30 845 24.95 8.3 47 86 6.1 43.1
18:40 1016 30 845 24.95 8.3 46.9 85 5.9 42.5
18:45 1016 30 845 24.95 8.3 46.9 84 5.7 42.3
18:50 1016 30 845 24.95 8.2 46.8 85 5.8 42.4
18:55 1016 30 845 24.95 8.1 46.6 86 5.9 42.6
19:00 1016 30 845 24.95 8 46.4 86 5.8 42.4
19:05 1016 30 845 24.95 8.1 46.6 85 5.7 42.2
19:10 1016 30 845 24.95 8.1 46.5 85 5.8 42.4
19:15 1016 30 845 24.95 8 46.5 85 5.8 42.4
19:20 1016 30 845 24.95 8.1 46.5 85 5.7 42.3
19:25 1016 30 845 24.95 8.1 46.6 85 5.7 42.3
19:30 1016 30 845 24.95 8.2 46.7 84 5.6 42
19:35 1016 30 845 24.95 8.2 46.7 85 5.7 42.3
19:40 1016 30 845 24.95 8.2 46.8 85 5.9 42.6
19:45 1016 30 846 24.98 8.2 46.8 86 6 42.8
19:50 1016 30 846 24.98 8.1 46.7 82 5.2 41.4
19:55 1016 30 846 24.98 8 46.4 82 5.2 41.3
20:00 1017 30.03 846 24.98 8 46.3 82 5.1 41.2
20:05 1017 30.03 846 24.98 7.9 46.3 84 5.4 41.7
20:10 1017 30.03 846 24.98 7.9 46.2 83 5.2 41.4
20:15 1017 30.03 846 24.98 7.9 46.2 83 5.2 41.4
20:20 1017 30.03 846 24.98 7.9 46.1 84 5.3 41.5
20:25 1017 30.03 846 24.98 7.9 46.1 84 5.4 41.7
20:30 1017 30.03 846 24.98 7.8 46.1 84 5.4 41.7
20:35 1017 30.03 846 24.98 7.8 46 85 5.4 41.7
20:40 1017 30.03 846 24.98 7.7 45.8 85 5.3 41.6
20:45 1017 30.03 846 24.98 7.6 45.7 84 5.2 41.3
20:50 1017 30.03 846 24.98 7.6 45.7 85 5.2 41.3
20:55 1017 30.03 846 24.98 7.7 45.8 85 5.3 41.5
21:00 1017 30.03 846 24.98 7.6 45.7 83 5 41
21:05 1017 30.03 846 24.98 7.7 45.8 83 5.1 41.1
21:10 1017 30.03 846 24.98 7.7 45.9 84 5.3 41.5
21:15 1017 30.03 846 24.98 7.7 45.9 84 5.2 41.4
21:20 1017 30.03 846 24.98 7.6 45.7 84 5.2 41.3
21:25 1017 30.03 846 24.98 7.6 45.7 83 4.9 40.9
21:30 1017 30.03 846 24.98 7.6 45.7 83 4.9 40.7
21:35 1017 30.03 846 24.98 7.6 45.7 82 4.8 40.6
21:40 1017 30.03 846 24.98 7.6 45.7 82 4.8 40.6
21:45 1017 30.03 846 24.98 7.6 45.7 83 4.9 40.8
21:50 1017 30.03 846 24.98 7.6 45.7 82 4.7 40.4
21:55 1017 30.03 846 24.98 7.6 45.7 82 4.7 40.5
22:00 1017 30.03 846 24.98 7.5 45.6 82 4.7 40.4
22:05 1017 30.03 846 24.98 7.5 45.5 81 4.5 40.1
22:10 1017 30.03 846 24.98 7.5 45.5 82 4.6 40.3
22:15 1017 30.03 846 24.98 7.4 45.4 83 4.7 40.5
22:20 1017 30.03 846 24.98 7.4 45.3 83 4.8 40.6
22:25 1017 30.03 846 24.98 7.3 45.2 84 4.7 40.5
22:30 1017 30.03 846 24.98 7.3 45.1 85 4.9 40.8
22:35 1017 30.03 846 24.98 7.3 45.1 85 5 41
22:40 1017 30.03 846 24.98 7.2 45 86 5 41
22:45 1017 30.03 846 24.98 7.1 44.8 86 5 41
22:50 1017 30.03 846 24.98 7.2 44.9 86 4.9 40.8
22:55 1017 30.03 846 24.98 7.2 44.9 85 4.8 40.6
23:00 1017 30.03 846 24.98 7.1 44.9 85 4.8 40.6
23:05 1017 30.03 846 24.98 7.2 44.9 85 4.8 40.6
23:10 1017 30.03 846 24.98 7.1 44.8 85 4.8 40.7
23:15 1017 30.03 846 24.98 7.1 44.8 86 4.9 40.8
23:20 1017 30.03 846 24.98 7 44.6 87 5 40.9
23:25 1017 30.03 846 24.98 6.9 44.3 88 5 41
23:30 1017 30.03 846 24.98 6.7 44.1 88 4.9 40.8
23:35 1017 30.03 846 24.98 6.7 44.1 86 4.6 40.2
23:40 1017 30.03 846 24.98 6.8 44.2 86 4.6 40.3
23:45 1017 30.03 846 24.98 6.8 44.2 86 4.6 40.3
23:50 1017 30.03 846 24.98 6.8 44.2 85 4.5 40
23:55 1017 30.03 846 24.98 6.7 44.1 86 4.6 40.2
24:00 1017 30.03 846 24.98 6.6 44 86 4.5 40.1